Terminal Aerodrome Forecast
Issued by NWS Amarillo, TX

Home | Current Version | Previous Version | Text Only | Print | Product List | Glossary On
Versions: 1 2 3 4 5 6 7 8 9 10 11 12 13 14 15 16 17 18 19 20
000
FTUS44 KAMA 260543
TAFAMA
TAF
KAMA 260543Z 2606/2706 01012KT 2SM BR OVC002
      TEMPO 2607/2611 1/2SM FG
     FM261300 01012KT 4SM BR OVC004
     FM261800 03009KT P6SM OVC010
     FM270100 05009KT P6SM OVC005=

USA.gov is the U.S. government's official web portal to all federal, state and local government web resources and services.